sensor_id;sensor_type;location;lat;lon;timestamp;P1;durP1;ratioP1;P2;durP2;ratioP2
26951;SDS011;14507;52.418;13.398;2023-07-31T00:00:27;5.90;;;2.20;;
26951;SDS011;14507;52.418;13.398;2023-07-31T00:02:54;5.78;;;1.98;;
26951;SDS011;14507;52.418;13.398;2023-07-31T00:05:20;6.80;;;2.13;;
26951;SDS011;14507;52.418;13.398;2023-07-31T00:07:45;3.90;;;1.52;;
26951;SDS011;14507;52.418;13.398;2023-07-31T00:10:11;4.07;;;1.77;;
26951;SDS011;14507;52.418;13.398;2023-07-31T00:12:38;4.40;;;1.60;;
26951;SDS011;14507;52.418;13.398;2023-07-31T00:15:04;7.10;;;1.80;;
26951;SDS011;14507;52.418;13.398;2023-07-31T00:17:31;7.07;;;2.00;;
26951;SDS011;14507;52.418;13.398;2023-07-31T00:19:57;4.70;;;1.80;;
26951;SDS011;14507;52.418;13.398;2023-07-31T00:22:22;3.92;;;1.60;;
26951;SDS011;14507;52.418;13.398;2023-07-31T00:24:49;3.42;;;1.52;;
26951;SDS011;14507;52.418;13.398;2023-07-31T00:27:14;4.97;;;1.40;;
26951;SDS011;14507;52.418;13.398;2023-07-31T00:29:40;4.07;;;1.70;;
26951;SDS011;14507;52.418;13.398;2023-07-31T00:32:06;4.43;;;1.60;;
26951;SDS011;14507;52.418;13.398;2023-07-31T00:34:32;4.35;;;1.58;;
26951;SDS011;14507;52.418;13.398;2023-07-31T00:36:57;6.65;;;1.75;;
26951;SDS011;14507;52.418;13.398;2023-07-31T00:39:23;7.18;;;1.77;;
26951;SDS011;14507;52.418;13.398;2023-07-31T00:41:49;4.28;;;1.48;;
26951;SDS011;14507;52.418;13.398;2023-07-31T00:44:14;7.55;;;1.80;;
26951;SDS011;14507;52.418;13.398;2023-07-31T00:46:40;4.85;;;2.08;;
26951;SDS011;14507;52.418;13.398;2023-07-31T00:49:05;7.25;;;1.63;;
26951;SDS011;14507;52.418;13.398;2023-07-31T00:51:32;6.20;;;2.33;;
26951;SDS011;14507;52.418;13.398;2023-07-31T00:53:58;3.80;;;1.50;;
26951;SDS011;14507;52.418;13.398;2023-07-31T00:56:24;4.57;;;1.80;;
26951;SDS011;14507;52.418;13.398;2023-07-31T00:58:51;5.40;;;1.70;;
26951;SDS011;14507;52.418;13.398;2023-07-31T01:01:17;6.43;;;1.60;;
26951;SDS011;14507;52.418;13.398;2023-07-31T01:03:42;7.20;;;1.90;;
26951;SDS011;14507;52.418;13.398;2023-07-31T01:06:17;8.02;;;1.90;;
26951;SDS011;14507;52.418;13.398;2023-07-31T01:11:57;6.97;;;1.98;;
26951;SDS011;14507;52.418;13.398;2023-07-31T01:14:26;6.65;;;1.77;;
26951;SDS011;14507;52.418;13.398;2023-07-31T01:16:52;5.22;;;1.98;;
26951;SDS011;14507;52.418;13.398;2023-07-31T01:19:19;4.72;;;1.92;;
26951;SDS011;14507;52.418;13.398;2023-07-31T01:24:20;5.03;;;1.98;;
26951;SDS011;14507;52.418;13.398;2023-07-31T01:26:56;4.15;;;1.90;;
26951;SDS011;14507;52.418;13.398;2023-07-31T01:32:14;3.85;;;1.65;;
26951;SDS011;14507;52.418;13.398;2023-07-31T01:34:42;6.45;;;2.20;;
26951;SDS011;14507;52.418;13.398;2023-07-31T01:37:09;7.10;;;1.92;;
26951;SDS011;14507;52.418;13.398;2023-07-31T01:39:34;7.75;;;2.28;;
26951;SDS011;14507;52.418;13.398;2023-07-31T01:42:00;7.32;;;2.08;;
26951;SDS011;14507;52.418;13.398;2023-07-31T01:44:26;6.15;;;1.60;;
26951;SDS011;14507;52.418;13.398;2023-07-31T01:46:52;4.93;;;1.95;;
26951;SDS011;14507;52.418;13.398;2023-07-31T01:49:18;7.28;;;1.80;;
26951;SDS011;14507;52.418;13.398;2023-07-31T01:51:43;5.15;;;1.90;;
26951;SDS011;14507;52.418;13.398;2023-07-31T01:54:09;4.10;;;2.03;;
26951;SDS011;14507;52.418;13.398;2023-07-31T01:56:34;4.90;;;1.90;;
26951;SDS011;14507;52.418;13.398;2023-07-31T01:59:00;4.40;;;1.83;;
26951;SDS011;14507;52.418;13.398;2023-07-31T02:01:26;5.88;;;2.08;;
26951;SDS011;14507;52.418;13.398;2023-07-31T02:03:51;6.20;;;2.03;;
26951;SDS011;14507;52.418;13.398;2023-07-31T02:06:17;4.00;;;2.05;;
26951;SDS011;14507;52.418;13.398;2023-07-31T02:08:43;6.45;;;2.22;;
26951;SDS011;14507;52.418;13.398;2023-07-31T02:11:09;5.60;;;2.13;;
26951;SDS011;14507;52.418;13.398;2023-07-31T02:13:34;10.18;;;2.38;;
26951;SDS011;14507;52.418;13.398;2023-07-31T02:16:00;8.73;;;2.35;;
26951;SDS011;14507;52.418;13.398;2023-07-31T02:18:28;5.68;;;2.55;;
26951;SDS011;14507;52.418;13.398;2023-07-31T02:20:54;6.30;;;2.63;;
26951;SDS011;14507;52.418;13.398;2023-07-31T02:23:19;6.90;;;2.55;;
26951;SDS011;14507;52.418;13.398;2023-07-31T02:25:45;10.13;;;2.80;;
26951;SDS011;14507;52.418;13.398;2023-07-31T02:28:11;9.90;;;3.08;;
26951;SDS011;14507;52.418;13.398;2023-07-31T02:30:37;7.40;;;2.90;;
26951;SDS011;14507;52.418;13.398;2023-07-31T02:33:03;6.60;;;2.90;;
26951;SDS011;14507;52.418;13.398;2023-07-31T02:35:29;9.32;;;2.90;;
26951;SDS011;14507;52.418;13.398;2023-07-31T02:37:55;4.75;;;2.50;;
26951;SDS011;14507;52.418;13.398;2023-07-31T02:40:21;6.22;;;3.22;;
26951;SDS011;14507;52.418;13.398;2023-07-31T02:42:47;6.03;;;2.47;;
26951;SDS011;14507;52.418;13.398;2023-07-31T02:45:12;6.25;;;2.47;;
26951;SDS011;14507;52.418;13.398;2023-07-31T02:47:38;7.25;;;3.10;;
26951;SDS011;14507;52.418;13.398;2023-07-31T02:50:04;6.85;;;3.00;;
26951;SDS011;14507;52.418;13.398;2023-07-31T02:52:30;6.53;;;2.78;;
26951;SDS011;14507;52.418;13.398;2023-07-31T02:54:55;7.55;;;2.80;;
26951;SDS011;14507;52.418;13.398;2023-07-31T02:57:22;7.88;;;3.15;;
26951;SDS011;14507;52.418;13.398;2023-07-31T02:59:47;9.65;;;3.33;;
26951;SDS011;14507;52.418;13.398;2023-07-31T03:02:13;6.78;;;2.90;;
26951;SDS011;14507;52.418;13.398;2023-07-31T03:04:39;6.18;;;3.17;;
26951;SDS011;14507;52.418;13.398;2023-07-31T03:07:05;8.05;;;3.03;;
26951;SDS011;14507;52.418;13.398;2023-07-31T03:09:30;13.77;;;3.88;;
26951;SDS011;14507;52.418;13.398;2023-07-31T03:11:56;10.63;;;3.72;;
26951;SDS011;14507;52.418;13.398;2023-07-31T03:14:22;7.13;;;3.47;;
26951;SDS011;14507;52.418;13.398;2023-07-31T03:16:47;9.10;;;3.30;;
26951;SDS011;14507;52.418;13.398;2023-07-31T03:19:13;7.15;;;3.40;;
26951;SDS011;14507;52.418;13.398;2023-07-31T03:21:39;12.50;;;3.53;;
26951;SDS011;14507;52.418;13.398;2023-07-31T03:24:05;6.60;;;3.20;;
26951;SDS011;14507;52.418;13.398;2023-07-31T03:26:31;7.60;;;3.22;;
26951;SDS011;14507;52.418;13.398;2023-07-31T03:28:57;7.13;;;3.45;;
26951;SDS011;14507;52.418;13.398;2023-07-31T03:31:23;9.18;;;3.08;;
26951;SDS011;14507;52.418;13.398;2023-07-31T03:33:48;5.90;;;3.03;;
26951;SDS011;14507;52.418;13.398;2023-07-31T03:36:14;8.68;;;3.40;;
26951;SDS011;14507;52.418;13.398;2023-07-31T03:38:40;9.60;;;3.45;;
26951;SDS011;14507;52.418;13.398;2023-07-31T03:41:05;8.07;;;3.33;;
26951;SDS011;14507;52.418;13.398;2023-07-31T03:43:31;4.75;;;2.90;;
26951;SDS011;14507;52.418;13.398;2023-07-31T03:45:59;11.17;;;3.93;;
26951;SDS011;14507;52.418;13.398;2023-07-31T03:48:25;8.10;;;3.65;;
26951;SDS011;14507;52.418;13.398;2023-07-31T03:50:51;8.77;;;3.50;;
26951;SDS011;14507;52.418;13.398;2023-07-31T03:53:16;9.27;;;3.50;;
26951;SDS011;14507;52.418;13.398;2023-07-31T03:55:42;8.43;;;3.17;;
26951;SDS011;14507;52.418;13.398;2023-07-31T03:58:07;11.00;;;3.70;;
26951;SDS011;14507;52.418;13.398;2023-07-31T04:00:33;8.27;;;3.28;;
26951;SDS011;14507;52.418;13.398;2023-07-31T04:02:59;9.35;;;3.10;;
26951;SDS011;14507;52.418;13.398;2023-07-31T04:05:24;5.82;;;3.35;;
26951;SDS011;14507;52.418;13.398;2023-07-31T04:07:50;6.38;;;3.05;;
26951;SDS011;14507;52.418;13.398;2023-07-31T04:10:15;6.75;;;3.28;;
26951;SDS011;14507;52.418;13.398;2023-07-31T04:12:41;6.47;;;2.90;;
26951;SDS011;14507;52.418;13.398;2023-07-31T04:15:07;5.68;;;3.08;;
26951;SDS011;14507;52.418;13.398;2023-07-31T04:17:33;12.48;;;3.25;;
26951;SDS011;14507;52.418;13.398;2023-07-31T04:19:58;9.63;;;3.28;;
26951;SDS011;14507;52.418;13.398;2023-07-31T04:22:24;8.35;;;3.10;;
26951;SDS011;14507;52.418;13.398;2023-07-31T04:24:49;8.73;;;2.72;;
26951;SDS011;14507;52.418;13.398;2023-07-31T04:27:15;8.20;;;3.17;;
26951;SDS011;14507;52.418;13.398;2023-07-31T04:29:41;9.00;;;3.67;;
26951;SDS011;14507;52.418;13.398;2023-07-31T04:32:07;9.73;;;3.88;;
26951;SDS011;14507;52.418;13.398;2023-07-31T04:34:33;9.55;;;3.08;;
26951;SDS011;14507;52.418;13.398;2023-07-31T04:36:59;10.73;;;3.40;;
26951;SDS011;14507;52.418;13.398;2023-07-31T04:39:24;5.82;;;3.15;;
26951;SDS011;14507;52.418;13.398;2023-07-31T04:41:50;8.55;;;3.70;;
26951;SDS011;14507;52.418;13.398;2023-07-31T04:44:16;7.72;;;3.22;;
26951;SDS011;14507;52.418;13.398;2023-07-31T04:46:41;7.90;;;3.08;;
26951;SDS011;14507;52.418;13.398;2023-07-31T04:49:07;10.07;;;3.20;;
26951;SDS011;14507;52.418;13.398;2023-07-31T04:51:32;8.32;;;3.17;;
26951;SDS011;14507;52.418;13.398;2023-07-31T04:53:58;8.15;;;3.67;;
26951;SDS011;14507;52.418;13.398;2023-07-31T04:56:26;7.90;;;3.45;;
26951;SDS011;14507;52.418;13.398;2023-07-31T04:58:52;6.45;;;2.95;;
26951;SDS011;14507;52.418;13.398;2023-07-31T05:01:17;7.25;;;2.88;;
26951;SDS011;14507;52.418;13.398;2023-07-31T05:03:43;9.05;;;2.90;;
26951;SDS011;14507;52.418;13.398;2023-07-31T05:06:08;7.97;;;3.30;;
26951;SDS011;14507;52.418;13.398;2023-07-31T05:08:34;6.18;;;2.70;;
26951;SDS011;14507;52.418;13.398;2023-07-31T05:10:59;7.13;;;3.15;;
26951;SDS011;14507;52.418;13.398;2023-07-31T05:13:25;8.63;;;3.25;;
26951;SDS011;14507;52.418;13.398;2023-07-31T05:15:51;7.70;;;2.63;;
26951;SDS011;14507;52.418;13.398;2023-07-31T05:18:16;7.22;;;3.00;;
26951;SDS011;14507;52.418;13.398;2023-07-31T05:20:42;9.38;;;2.92;;
26951;SDS011;14507;52.418;13.398;2023-07-31T05:23:08;12.48;;;3.05;;
26951;SDS011;14507;52.418;13.398;2023-07-31T05:25:33;9.52;;;2.67;;
26951;SDS011;14507;52.418;13.398;2023-07-31T05:27:59;7.40;;;2.97;;
26951;SDS011;14507;52.418;13.398;2023-07-31T05:30:25;9.07;;;3.13;;
26951;SDS011;14507;52.418;13.398;2023-07-31T05:32:51;7.57;;;2.40;;
26951;SDS011;14507;52.418;13.398;2023-07-31T05:35:17;8.57;;;2.50;;
26951;SDS011;14507;52.418;13.398;2023-07-31T05:37:42;7.38;;;2.90;;
26951;SDS011;14507;52.418;13.398;2023-07-31T05:40:08;6.72;;;2.50;;
26951;SDS011;14507;52.418;13.398;2023-07-31T05:42:34;8.13;;;2.72;;
26951;SDS011;14507;52.418;13.398;2023-07-31T05:45:01;11.67;;;2.73;;
26951;SDS011;14507;52.418;13.398;2023-07-31T05:47:27;7.40;;;2.90;;
26951;SDS011;14507;52.418;13.398;2023-07-31T05:49:52;8.48;;;2.70;;
26951;SDS011;14507;52.418;13.398;2023-07-31T05:52:18;10.00;;;3.55;;
26951;SDS011;14507;52.418;13.398;2023-07-31T05:54:44;7.72;;;2.85;;
26951;SDS011;14507;52.418;13.398;2023-07-31T05:57:11;6.95;;;2.70;;
26951;SDS011;14507;52.418;13.398;2023-07-31T05:59:37;8.55;;;2.70;;
26951;SDS011;14507;52.418;13.398;2023-07-31T06:02:02;7.30;;;2.72;;
26951;SDS011;14507;52.418;13.398;2023-07-31T06:04:28;8.63;;;2.65;;
26951;SDS011;14507;52.418;13.398;2023-07-31T06:06:54;12.13;;;3.17;;
26951;SDS011;14507;52.418;13.398;2023-07-31T06:09:19;10.70;;;2.80;;
26951;SDS011;14507;52.418;13.398;2023-07-31T06:11:47;10.40;;;3.03;;
26951;SDS011;14507;52.418;13.398;2023-07-31T06:14:13;9.85;;;3.00;;
26951;SDS011;14507;52.418;13.398;2023-07-31T06:16:39;8.70;;;2.85;;
26951;SDS011;14507;52.418;13.398;2023-07-31T06:19:05;5.78;;;2.42;;
26951;SDS011;14507;52.418;13.398;2023-07-31T06:21:32;9.20;;;2.75;;
26951;SDS011;14507;52.418;13.398;2023-07-31T06:23:58;6.05;;;2.20;;
26951;SDS011;14507;52.418;13.398;2023-07-31T06:26:26;7.60;;;2.80;;
26951;SDS011;14507;52.418;13.398;2023-07-31T06:28:52;11.57;;;2.55;;
26951;SDS011;14507;52.418;13.398;2023-07-31T06:31:18;8.80;;;2.67;;
26951;SDS011;14507;52.418;13.398;2023-07-31T06:33:47;7.55;;;2.50;;
26951;SDS011;14507;52.418;13.398;2023-07-31T06:36:16;6.47;;;2.20;;
26951;SDS011;14507;52.418;13.398;2023-07-31T06:38:42;7.05;;;2.45;;
26951;SDS011;14507;52.418;13.398;2023-07-31T06:41:09;8.63;;;2.30;;
26951;SDS011;14507;52.418;13.398;2023-07-31T06:43:35;4.90;;;2.17;;
26951;SDS011;14507;52.418;13.398;2023-07-31T06:46:07;7.93;;;2.50;;
26951;SDS011;14507;52.418;13.398;2023-07-31T06:48:33;6.43;;;2.30;;
26951;SDS011;14507;52.418;13.398;2023-07-31T06:51:00;5.97;;;2.30;;
26951;SDS011;14507;52.418;13.398;2023-07-31T06:53:26;7.50;;;2.65;;
26951;SDS011;14507;52.418;13.398;2023-07-31T06:55:51;7.47;;;2.35;;
26951;SDS011;14507;52.418;13.398;2023-07-31T06:58:17;6.30;;;2.47;;
26951;SDS011;14507;52.418;13.398;2023-07-31T07:00:43;8.07;;;2.40;;
26951;SDS011;14507;52.418;13.398;2023-07-31T07:03:08;7.85;;;3.30;;
26951;SDS011;14507;52.418;13.398;2023-07-31T07:05:34;8.70;;;3.10;;
26951;SDS011;14507;52.418;13.398;2023-07-31T07:08:00;10.57;;;2.83;;
26951;SDS011;14507;52.418;13.398;2023-07-31T07:10:26;5.95;;;2.95;;
26951;SDS011;14507;52.418;13.398;2023-07-31T07:12:51;4.68;;;2.25;;
26951;SDS011;14507;52.418;13.398;2023-07-31T07:15:17;11.57;;;2.95;;
26951;SDS011;14507;52.418;13.398;2023-07-31T07:17:43;5.32;;;2.63;;
26951;SDS011;14507;52.418;13.398;2023-07-31T07:20:09;4.85;;;2.55;;
26951;SDS011;14507;52.418;13.398;2023-07-31T07:22:34;12.63;;;2.90;;
26951;SDS011;14507;52.418;13.398;2023-07-31T07:25:00;7.70;;;2.88;;
26951;SDS011;14507;52.418;13.398;2023-07-31T07:27:26;9.10;;;3.20;;
26951;SDS011;14507;52.418;13.398;2023-07-31T07:29:52;9.40;;;3.22;;
26951;SDS011;14507;52.418;13.398;2023-07-31T07:32:18;5.93;;;2.90;;
26951;SDS011;14507;52.418;13.398;2023-07-31T07:34:44;7.97;;;2.80;;
26951;SDS011;14507;52.418;13.398;2023-07-31T07:37:09;6.63;;;2.65;;
26951;SDS011;14507;52.418;13.398;2023-07-31T07:39:35;7.35;;;2.58;;
26951;SDS011;14507;52.418;13.398;2023-07-31T07:42:00;6.05;;;2.80;;
26951;SDS011;14507;52.418;13.398;2023-07-31T07:44:26;9.02;;;2.70;;
26951;SDS011;14507;52.418;13.398;2023-07-31T07:46:52;6.78;;;2.58;;
26951;SDS011;14507;52.418;13.398;2023-07-31T07:49:17;6.82;;;2.60;;
26951;SDS011;14507;52.418;13.398;2023-07-31T07:51:43;6.43;;;2.90;;
26951;SDS011;14507;52.418;13.398;2023-07-31T07:54:08;6.80;;;2.13;;
26951;SDS011;14507;52.418;13.398;2023-07-31T07:56:34;6.53;;;2.40;;
26951;SDS011;14507;52.418;13.398;2023-07-31T07:59:01;4.88;;;2.10;;
26951;SDS011;14507;52.418;13.398;2023-07-31T08:01:27;5.07;;;2.08;;
26951;SDS011;14507;52.418;13.398;2023-07-31T08:03:52;8.00;;;2.67;;
26951;SDS011;14507;52.418;13.398;2023-07-31T08:06:18;5.95;;;2.17;;
26951;SDS011;14507;52.418;13.398;2023-07-31T08:08:44;4.40;;;2.03;;
26951;SDS011;14507;52.418;13.398;2023-07-31T08:11:09;5.63;;;2.13;;
26951;SDS011;14507;52.418;13.398;2023-07-31T08:13:35;6.90;;;2.65;;
26951;SDS011;14507;52.418;13.398;2023-07-31T08:16:02;5.35;;;2.45;;
26951;SDS011;14507;52.418;13.398;2023-07-31T08:18:28;7.37;;;2.40;;
26951;SDS011;14507;52.418;13.398;2023-07-31T08:20:55;7.10;;;2.97;;
26951;SDS011;14507;52.418;13.398;2023-07-31T08:23:21;5.32;;;2.63;;
26951;SDS011;14507;52.418;13.398;2023-07-31T08:25:47;7.95;;;3.05;;
26951;SDS011;14507;52.418;13.398;2023-07-31T08:28:14;5.88;;;2.85;;
26951;SDS011;14507;52.418;13.398;2023-07-31T08:30:40;7.72;;;2.85;;
26951;SDS011;14507;52.418;13.398;2023-07-31T08:33:07;6.40;;;2.70;;
26951;SDS011;14507;52.418;13.398;2023-07-31T08:35:32;7.40;;;2.80;;
26951;SDS011;14507;52.418;13.398;2023-07-31T08:37:58;8.43;;;2.90;;
26951;SDS011;14507;52.418;13.398;2023-07-31T08:40:24;7.60;;;2.85;;
26951;SDS011;14507;52.418;13.398;2023-07-31T08:42:55;4.85;;;2.47;;
26951;SDS011;14507;52.418;13.398;2023-07-31T08:45:22;5.72;;;2.45;;
26951;SDS011;14507;52.418;13.398;2023-07-31T08:47:49;6.30;;;2.70;;
26951;SDS011;14507;52.418;13.398;2023-07-31T08:50:17;5.70;;;2.38;;
26951;SDS011;14507;52.418;13.398;2023-07-31T08:55:10;8.73;;;2.50;;
26951;SDS011;14507;52.418;13.398;2023-07-31T08:57:37;7.10;;;2.45;;
26951;SDS011;14507;52.418;13.398;2023-07-31T09:00:07;6.25;;;2.35;;
26951;SDS011;14507;52.418;13.398;2023-07-31T09:02:35;8.07;;;1.83;;
26951;SDS011;14507;52.418;13.398;2023-07-31T09:05:05;7.15;;;2.13;;
26951;SDS011;14507;52.418;13.398;2023-07-31T09:07:33;6.50;;;2.45;;
26951;SDS011;14507;52.418;13.398;2023-07-31T09:10:01;4.90;;;2.00;;
26951;SDS011;14507;52.418;13.398;2023-07-31T09:12:27;4.32;;;1.70;;
26951;SDS011;14507;52.418;13.398;2023-07-31T09:14:53;4.85;;;1.60;;
26951;SDS011;14507;52.418;13.398;2023-07-31T09:17:31;2.72;;;1.38;;
26951;SDS011;14507;52.418;13.398;2023-07-31T09:22:43;3.55;;;1.27;;
26951;SDS011;14507;52.418;13.398;2023-07-31T09:27:57;2.63;;;1.10;;
26951;SDS011;14507;52.418;13.398;2023-07-31T09:30:23;2.33;;;0.90;;
26951;SDS011;14507;52.418;13.398;2023-07-31T09:32:49;3.58;;;1.10;;
26951;SDS011;14507;52.418;13.398;2023-07-31T09:35:27;2.88;;;0.85;;
26951;SDS011;14507;52.418;13.398;2023-07-31T09:37:58;2.22;;;1.13;;
26951;SDS011;14507;52.418;13.398;2023-07-31T09:40:45;3.15;;;1.00;;
26951;SDS011;14507;52.418;13.398;2023-07-31T09:43:13;2.55;;;0.85;;
26951;SDS011;14507;52.418;13.398;2023-07-31T09:45:43;3.28;;;1.05;;
26951;SDS011;14507;52.418;13.398;2023-07-31T09:48:10;6.33;;;1.47;;
26951;SDS011;14507;52.418;13.398;2023-07-31T09:50:38;5.68;;;2.20;;
26951;SDS011;14507;52.418;13.398;2023-07-31T09:53:05;4.70;;;1.63;;
26951;SDS011;14507;52.418;13.398;2023-07-31T09:55:31;4.53;;;1.70;;
26951;SDS011;14507;52.418;13.398;2023-07-31T09:57:57;4.22;;;1.90;;
26951;SDS011;14507;52.418;13.398;2023-07-31T10:00:23;4.22;;;2.25;;
26951;SDS011;14507;52.418;13.398;2023-07-31T10:02:53;4.72;;;2.15;;
26951;SDS011;14507;52.418;13.398;2023-07-31T10:05:22;4.43;;;2.03;;
26951;SDS011;14507;52.418;13.398;2023-07-31T10:07:52;6.43;;;2.88;;
26951;SDS011;14507;52.418;13.398;2023-07-31T10:10:19;8.35;;;3.20;;
26951;SDS011;14507;52.418;13.398;2023-07-31T10:12:47;8.38;;;2.88;;
26951;SDS011;14507;52.418;13.398;2023-07-31T10:15:14;6.20;;;2.97;;
26951;SDS011;14507;52.418;13.398;2023-07-31T10:17:40;7.38;;;3.13;;
26951;SDS011;14507;52.418;13.398;2023-07-31T10:20:07;10.43;;;3.53;;
26951;SDS011;14507;52.418;13.398;2023-07-31T10:22:33;5.25;;;2.70;;
26951;SDS011;14507;52.418;13.398;2023-07-31T10:24:59;7.68;;;2.80;;
26951;SDS011;14507;52.418;13.398;2023-07-31T10:27:26;8.20;;;3.30;;
26951;SDS011;14507;52.418;13.398;2023-07-31T10:29:53;10.88;;;3.10;;
26951;SDS011;14507;52.418;13.398;2023-07-31T10:32:20;6.78;;;3.00;;
26951;SDS011;14507;52.418;13.398;2023-07-31T10:34:47;7.47;;;3.40;;
26951;SDS011;14507;52.418;13.398;2023-07-31T10:40:03;8.52;;;3.45;;
26951;SDS011;14507;52.418;13.398;2023-07-31T10:42:37;6.40;;;3.47;;
26951;SDS011;14507;52.418;13.398;2023-07-31T10:45:09;6.78;;;2.95;;
26951;SDS011;14507;52.418;13.398;2023-07-31T10:47:44;12.27;;;3.15;;
26951;SDS011;14507;52.418;13.398;2023-07-31T10:50:11;7.10;;;2.85;;
26951;SDS011;14507;52.418;13.398;2023-07-31T10:52:37;7.30;;;3.28;;
26951;SDS011;14507;52.418;13.398;2023-07-31T11:00:21;9.13;;;3.47;;
26951;SDS011;14507;52.418;13.398;2023-07-31T11:02:59;7.20;;;3.22;;
26951;SDS011;14507;52.418;13.398;2023-07-31T11:08:17;7.53;;;2.60;;
26951;SDS011;14507;52.418;13.398;2023-07-31T11:10:47;7.00;;;3.15;;
26951;SDS011;14507;52.418;13.398;2023-07-31T11:13:14;6.93;;;2.70;;
26951;SDS011;14507;52.418;13.398;2023-07-31T11:15:40;5.35;;;2.30;;
26951;SDS011;14507;52.418;13.398;2023-07-31T11:18:06;6.18;;;2.85;;
26951;SDS011;14507;52.418;13.398;2023-07-31T11:20:33;8.93;;;2.95;;
26951;SDS011;14507;52.418;13.398;2023-07-31T11:23:04;8.73;;;2.80;;
26951;SDS011;14507;52.418;13.398;2023-07-31T11:25:32;7.78;;;2.85;;
26951;SDS011;14507;52.418;13.398;2023-07-31T11:28:05;4.55;;;2.83;;
26951;SDS011;14507;52.418;13.398;2023-07-31T11:30:32;8.25;;;2.75;;
26951;SDS011;14507;52.418;13.398;2023-07-31T11:32:59;8.02;;;2.65;;
26951;SDS011;14507;52.418;13.398;2023-07-31T11:35:28;6.03;;;2.63;;
26951;SDS011;14507;52.418;13.398;2023-07-31T11:37:54;7.38;;;2.83;;
26951;SDS011;14507;52.418;13.398;2023-07-31T11:40:20;6.40;;;2.78;;
26951;SDS011;14507;52.418;13.398;2023-07-31T11:42:46;20.52;;;3.50;;
26951;SDS011;14507;52.418;13.398;2023-07-31T11:45:11;10.15;;;2.83;;
26951;SDS011;14507;52.418;13.398;2023-07-31T11:47:37;6.70;;;3.03;;
26951;SDS011;14507;52.418;13.398;2023-07-31T11:50:04;4.88;;;2.33;;
26951;SDS011;14507;52.418;13.398;2023-07-31T11:52:32;5.28;;;2.20;;
26951;SDS011;14507;52.418;13.398;2023-07-31T11:55:02;7.43;;;3.03;;
26951;SDS011;14507;52.418;13.398;2023-07-31T11:57:28;8.63;;;2.40;;
26951;SDS011;14507;52.418;13.398;2023-07-31T11:59:54;6.60;;;2.92;;
26951;SDS011;14507;52.418;13.398;2023-07-31T12:02:21;5.75;;;2.80;;
26951;SDS011;14507;52.418;13.398;2023-07-31T12:04:47;8.13;;;2.80;;
26951;SDS011;14507;52.418;13.398;2023-07-31T12:07:13;5.93;;;2.50;;
26951;SDS011;14507;52.418;13.398;2023-07-31T12:09:50;7.30;;;2.38;;
26951;SDS011;14507;52.418;13.398;2023-07-31T12:12:25;5.68;;;2.63;;
26951;SDS011;14507;52.418;13.398;2023-07-31T12:14:51;7.78;;;2.70;;
26951;SDS011;14507;52.418;13.398;2023-07-31T12:17:17;8.25;;;2.53;;
26951;SDS011;14507;52.418;13.398;2023-07-31T12:22:11;7.95;;;2.70;;
26951;SDS011;14507;52.418;13.398;2023-07-31T12:24:41;7.28;;;2.50;;
26951;SDS011;14507;52.418;13.398;2023-07-31T12:27:12;6.55;;;2.83;;
26951;SDS011;14507;52.418;13.398;2023-07-31T12:29:39;8.23;;;2.65;;
26951;SDS011;14507;52.418;13.398;2023-07-31T12:32:22;10.18;;;3.38;;
26951;SDS011;14507;52.418;13.398;2023-07-31T12:34:50;5.03;;;2.20;;
26951;SDS011;14507;52.418;13.398;2023-07-31T12:37:16;6.32;;;2.45;;
26951;SDS011;14507;52.418;13.398;2023-07-31T12:39:42;8.68;;;2.55;;
26951;SDS011;14507;52.418;13.398;2023-07-31T12:42:08;5.32;;;2.00;;
26951;SDS011;14507;52.418;13.398;2023-07-31T12:44:33;4.53;;;2.30;;
26951;SDS011;14507;52.418;13.398;2023-07-31T12:46:59;5.93;;;1.90;;
26951;SDS011;14507;52.418;13.398;2023-07-31T12:49:24;6.57;;;2.00;;
26951;SDS011;14507;52.418;13.398;2023-07-31T12:51:50;4.72;;;1.70;;
26951;SDS011;14507;52.418;13.398;2023-07-31T12:54:15;3.67;;;1.70;;
26951;SDS011;14507;52.418;13.398;2023-07-31T12:56:41;4.57;;;2.08;;
26951;SDS011;14507;52.418;13.398;2023-07-31T12:59:07;5.72;;;2.50;;
26951;SDS011;14507;52.418;13.398;2023-07-31T13:01:33;6.18;;;2.10;;
26951;SDS011;14507;52.418;13.398;2023-07-31T13:03:58;4.78;;;1.45;;
26951;SDS011;14507;52.418;13.398;2023-07-31T13:06:24;3.85;;;2.08;;
26951;SDS011;14507;52.418;13.398;2023-07-31T13:08:50;7.00;;;2.88;;
26951;SDS011;14507;52.418;13.398;2023-07-31T13:11:16;5.05;;;2.38;;
26951;SDS011;14507;52.418;13.398;2023-07-31T13:13:42;8.70;;;2.65;;
26951;SDS011;14507;52.418;13.398;2023-07-31T13:16:07;11.55;;;3.78;;
26951;SDS011;14507;52.418;13.398;2023-07-31T13:18:33;8.05;;;2.55;;
26951;SDS011;14507;52.418;13.398;2023-07-31T13:20:59;6.20;;;2.60;;
26951;SDS011;14507;52.418;13.398;2023-07-31T13:23:24;5.13;;;2.28;;
26951;SDS011;14507;52.418;13.398;2023-07-31T13:25:50;10.43;;;2.83;;
26951;SDS011;14507;52.418;13.398;2023-07-31T13:28:15;7.93;;;2.72;;
26951;SDS011;14507;52.418;13.398;2023-07-31T13:30:41;8.73;;;3.33;;
26951;SDS011;14507;52.418;13.398;2023-07-31T13:33:07;9.05;;;3.35;;
26951;SDS011;14507;52.418;13.398;2023-07-31T13:35:32;7.38;;;3.42;;
26951;SDS011;14507;52.418;13.398;2023-07-31T13:37:58;9.60;;;3.50;;
26951;SDS011;14507;52.418;13.398;2023-07-31T13:40:23;7.15;;;2.60;;
26951;SDS011;14507;52.418;13.398;2023-07-31T13:42:49;7.97;;;2.97;;
26951;SDS011;14507;52.418;13.398;2023-07-31T13:45:15;5.35;;;2.60;;
26951;SDS011;14507;52.418;13.398;2023-07-31T13:47:40;8.55;;;2.55;;
26951;SDS011;14507;52.418;13.398;2023-07-31T13:50:06;6.70;;;2.75;;
26951;SDS011;14507;52.418;13.398;2023-07-31T13:52:32;8.25;;;2.83;;
26951;SDS011;14507;52.418;13.398;2023-07-31T13:54:57;7.75;;;2.97;;
26951;SDS011;14507;52.418;13.398;2023-07-31T13:57:23;8.63;;;3.38;;
26951;SDS011;14507;52.418;13.398;2023-07-31T13:59:49;10.23;;;3.03;;
26951;SDS011;14507;52.418;13.398;2023-07-31T14:02:14;6.18;;;2.80;;
26951;SDS011;14507;52.418;13.398;2023-07-31T14:04:40;7.72;;;3.08;;
26951;SDS011;14507;52.418;13.398;2023-07-31T14:07:06;6.15;;;2.42;;
26951;SDS011;14507;52.418;13.398;2023-07-31T14:09:32;8.30;;;2.85;;
26951;SDS011;14507;52.418;13.398;2023-07-31T14:11:57;11.50;;;3.17;;
26951;SDS011;14507;52.418;13.398;2023-07-31T14:14:23;6.85;;;3.08;;
26951;SDS011;14507;52.418;13.398;2023-07-31T14:16:49;6.55;;;3.05;;
26951;SDS011;14507;52.418;13.398;2023-07-31T14:19:14;10.32;;;3.08;;
26951;SDS011;14507;52.418;13.398;2023-07-31T14:21:40;7.65;;;2.85;;
26951;SDS011;14507;52.418;13.398;2023-07-31T14:24:05;7.70;;;2.90;;
26951;SDS011;14507;52.418;13.398;2023-07-31T14:26:31;8.32;;;3.50;;
26951;SDS011;14507;52.418;13.398;2023-07-31T14:28:57;6.88;;;3.30;;
26951;SDS011;14507;52.418;13.398;2023-07-31T14:31:22;7.38;;;2.90;;
26951;SDS011;14507;52.418;13.398;2023-07-31T14:33:48;6.35;;;3.00;;
26951;SDS011;14507;52.418;13.398;2023-07-31T14:36:14;4.30;;;2.28;;
26951;SDS011;14507;52.418;13.398;2023-07-31T14:38:39;7.18;;;2.55;;
26951;SDS011;14507;52.418;13.398;2023-07-31T14:41:05;5.25;;;2.80;;
26951;SDS011;14507;52.418;13.398;2023-07-31T14:43:31;7.88;;;2.45;;
26951;SDS011;14507;52.418;13.398;2023-07-31T14:45:57;6.53;;;3.00;;
26951;SDS011;14507;52.418;13.398;2023-07-31T14:50:50;6.28;;;2.75;;
26951;SDS011;14507;52.418;13.398;2023-07-31T14:53:16;7.50;;;2.80;;
26951;SDS011;14507;52.418;13.398;2023-07-31T14:55:41;6.28;;;2.90;;
26951;SDS011;14507;52.418;13.398;2023-07-31T14:58:07;7.65;;;3.03;;
26951;SDS011;14507;52.418;13.398;2023-07-31T15:00:33;8.02;;;3.13;;